createdAt,value
2018-11-04T00:01:44.137Z,25.33
2018-11-04T00:04:12.502Z,26.77
2018-11-04T00:06:40.802Z,25.00
2018-11-04T00:09:10.157Z,26.60
2018-11-04T00:11:38.540Z,25.37
2018-11-04T00:14:06.962Z,26.33
2018-11-04T00:16:35.433Z,27.50
2018-11-04T00:19:03.847Z,25.73
2018-11-04T00:21:32.115Z,24.83
2018-11-04T00:24:00.588Z,26.20
2018-11-04T00:26:29.007Z,26.03
2018-11-04T00:28:57.339Z,25.57
2018-11-04T00:31:25.873Z,25.57
2018-11-04T00:33:54.362Z,27.57
2018-11-04T00:36:22.650Z,26.77
2018-11-04T00:38:51.090Z,27.13
2018-11-04T00:41:19.706Z,25.87
2018-11-04T00:43:48.534Z,27.10
2018-11-04T00:46:16.974Z,24.30
2018-11-04T00:48:45.330Z,24.83
2018-11-04T00:51:13.762Z,22.50
2018-11-04T00:53:42.162Z,23.20
2018-11-04T00:56:10.578Z,23.80
2018-11-04T00:58:38.914Z,24.60
2018-11-04T01:01:07.438Z,25.10
2018-11-04T01:03:35.758Z,23.53
2018-11-04T01:06:04.342Z,22.97
2018-11-04T01:08:32.850Z,21.07
2018-11-04T01:11:01.284Z,21.53
2018-11-04T01:13:29.602Z,22.60
2018-11-04T01:15:57.870Z,21.40
2018-11-04T01:18:26.194Z,20.67
2018-11-04T01:20:54.481Z,20.03
2018-11-04T01:23:22.814Z,21.63
2018-11-04T01:25:51.239Z,22.70
2018-11-04T01:28:19.689Z,22.10
2018-11-04T01:30:48.152Z,23.00
2018-11-04T01:33:16.566Z,22.17
2018-11-04T01:35:44.978Z,23.77
2018-11-04T01:38:13.246Z,18.23
2018-11-04T01:40:41.966Z,18.13
2018-11-04T01:43:11.219Z,19.07
2018-11-04T01:45:39.482Z,17.90
2018-11-04T01:48:07.804Z,19.17
2018-11-04T01:50:36.274Z,19.57
2018-11-04T01:53:04.998Z,20.90
2018-11-04T01:55:33.410Z,22.07
2018-11-04T01:58:01.918Z,21.60
2018-11-04T02:00:30.200Z,21.70
2018-11-04T02:02:58.738Z,22.73
2018-11-04T02:05:27.100Z,22.23
2018-11-04T02:07:55.498Z,21.07
2018-11-04T02:10:23.895Z,18.43
2018-11-04T02:12:52.214Z,18.43
2018-11-04T02:15:20.606Z,17.83
2018-11-04T02:17:49.003Z,18.00
2018-11-04T02:20:17.376Z,18.57
2018-11-04T02:22:45.739Z,17.97
2018-11-04T02:25:14.793Z,17.77
2018-11-04T02:27:43.718Z,18.60
2018-11-04T02:30:14.524Z,18.70
2018-11-04T02:32:44.038Z,17.77
2018-11-04T02:35:13.134Z,17.93
2018-11-04T02:37:41.823Z,17.73
2018-11-04T02:40:10.743Z,20.07
2018-11-04T02:42:39.119Z,20.90
2018-11-04T02:45:08.346Z,18.40
2018-11-04T02:47:37.183Z,18.57
2018-11-04T02:50:06.115Z,18.77
2018-11-04T02:52:34.854Z,17.87
2018-11-04T02:55:03.228Z,19.23
2018-11-04T02:57:31.638Z,19.17
2018-11-04T03:00:00.041Z,19.47
2018-11-04T03:02:28.411Z,19.93
2018-11-04T03:04:56.722Z,19.97
2018-11-04T03:07:25.044Z,19.07
2018-11-04T03:09:53.458Z,19.00
2018-11-04T03:12:21.798Z,20.73
2018-11-04T03:14:50.178Z,19.33
2018-11-04T03:17:18.616Z,19.47
2018-11-04T03:19:47.053Z,20.13
2018-11-04T03:22:15.434Z,21.37
2018-11-04T03:24:43.871Z,22.17
2018-11-04T03:27:12.138Z,19.07
2018-11-04T03:29:40.558Z,19.63
2018-11-04T03:32:08.999Z,21.03
2018-11-04T03:34:37.322Z,22.23
2018-11-04T03:37:06.334Z,20.47
2018-11-04T03:39:34.643Z,22.37
2018-11-04T03:42:02.962Z,20.80
2018-11-04T03:44:31.353Z,22.60
2018-11-04T03:46:59.874Z,19.97
2018-11-04T03:49:28.247Z,21.43
2018-11-04T03:51:56.573Z,20.03
2018-11-04T03:54:25.083Z,18.50
2018-11-04T03:56:53.349Z,18.03
2018-11-04T03:59:21.722Z,17.00
2018-11-04T04:01:50.111Z,16.13
2018-11-04T04:04:18.482Z,16.07
2018-11-04T04:06:46.823Z,15.73
2018-11-04T04:09:15.126Z,15.50
2018-11-04T04:11:43.398Z,15.37
2018-11-04T04:14:11.778Z,15.43
2018-11-04T04:16:41.448Z,15.07
2018-11-04T04:19:09.726Z,14.70
2018-11-04T04:21:38.147Z,15.53
2018-11-04T04:24:06.962Z,14.50
2018-11-04T04:26:35.233Z,15.83
2018-11-04T04:29:03.666Z,19.70
2018-11-04T04:31:32.145Z,21.17
2018-11-04T04:34:00.474Z,20.93
2018-11-04T04:36:28.890Z,20.33
2018-11-04T04:38:57.426Z,22.67
2018-11-04T04:41:25.823Z,21.60
2018-11-04T04:43:54.162Z,20.83
2018-11-04T04:46:22.574Z,24.27
2018-11-04T04:48:51.018Z,23.37
2018-11-04T04:51:19.482Z,18.83
2018-11-04T04:53:54.595Z,20.93
2018-11-04T04:56:22.923Z,23.40
2018-11-04T04:58:51.300Z,22.53
2018-11-04T05:01:19.780Z,21.53
2018-11-04T05:03:48.261Z,20.93
2018-11-04T05:06:16.634Z,23.10
2018-11-04T05:08:45.043Z,22.70
2018-11-04T05:11:13.386Z,22.77
2018-11-04T05:13:41.785Z,22.10
2018-11-04T05:16:10.168Z,21.73
2018-11-04T05:18:38.542Z,21.17
2018-11-04T05:21:06.894Z,17.90
2018-11-04T05:23:35.310Z,18.30
2018-11-04T05:26:03.730Z,16.77
2018-11-04T05:28:33.065Z,16.77
2018-11-04T05:31:02.394Z,17.73
2018-11-04T05:33:30.667Z,18.13
2018-11-04T05:35:58.942Z,17.13
2018-11-04T05:38:28.275Z,17.07
2018-11-04T05:40:56.669Z,16.20
2018-11-04T05:43:25.241Z,16.40
2018-11-04T05:45:53.585Z,18.70
2018-11-04T05:48:21.922Z,17.60
2018-11-04T05:50:50.425Z,18.07
2018-11-04T05:53:18.916Z,18.40
2018-11-04T05:55:47.257Z,15.80
2018-11-04T05:58:15.695Z,16.83
2018-11-04T06:00:44.057Z,16.40
2018-11-04T06:03:12.337Z,16.23
2018-11-04T06:05:40.613Z,16.47
2018-11-04T06:08:08.969Z,17.67
2018-11-04T06:10:37.341Z,17.80
2018-11-04T06:13:06.129Z,18.27
2018-11-04T06:15:34.539Z,17.07
2018-11-04T06:18:02.881Z,20.93
2018-11-04T06:20:31.273Z,21.20
2018-11-04T06:22:59.666Z,19.03
2018-11-04T06:25:28.051Z,19.73
2018-11-04T06:27:56.685Z,19.03
2018-11-04T06:30:25.106Z,24.27
2018-11-04T06:32:53.472Z,18.43
2018-11-04T06:35:21.837Z,19.87
2018-11-04T06:37:50.145Z,16.17
2018-11-04T06:40:18.509Z,16.77
2018-11-04T06:42:46.893Z,17.60
2018-11-04T06:45:15.306Z,18.73
2018-11-04T06:47:43.688Z,16.27
2018-11-04T06:50:13.282Z,16.73
2018-11-04T06:52:42.444Z,17.90
2018-11-04T06:55:11.653Z,19.20
2018-11-04T06:57:40.565Z,18.00
2018-11-04T07:00:10.966Z,18.67
2018-11-04T07:02:39.501Z,18.60
2018-11-04T07:05:07.921Z,17.47
2018-11-04T07:07:36.457Z,16.87
2018-11-04T07:10:05.641Z,17.47
2018-11-04T07:12:33.973Z,17.80
2018-11-04T07:15:02.678Z,17.40
2018-11-04T07:17:31.086Z,17.57
2018-11-04T07:19:59.385Z,16.87
2018-11-04T07:22:27.798Z,16.53
2018-11-04T07:24:56.186Z,16.23
2018-11-04T07:27:24.729Z,15.83
2018-11-04T07:29:53.062Z,15.30
2018-11-04T07:32:21.402Z,15.47
2018-11-04T07:34:49.773Z,16.47
2018-11-04T07:37:18.204Z,17.07
2018-11-04T07:39:46.687Z,16.80
2018-11-04T07:42:14.969Z,15.83
2018-11-04T07:44:43.322Z,15.67
2018-11-04T07:47:11.697Z,16.30
2018-11-04T07:49:40.092Z,14.30
2018-11-04T07:52:08.430Z,14.57
2018-11-04T07:54:37.036Z,15.50
2018-11-04T07:57:05.656Z,15.90
2018-11-04T07:59:34.034Z,17.23
2018-11-04T08:02:02.310Z,17.67
2018-11-04T08:04:30.640Z,17.57
2018-11-04T08:06:59.042Z,16.30
2018-11-04T08:09:27.324Z,16.10
2018-11-04T08:11:55.654Z,16.53
2018-11-04T08:14:23.973Z,16.37
2018-11-04T08:16:52.406Z,12.40
2018-11-04T08:19:20.706Z,16.43
2018-11-04T08:21:49.111Z,16.20
2018-11-04T08:24:17.450Z,17.63
2018-11-04T08:26:45.842Z,16.53
2018-11-04T08:29:14.278Z,19.93
2018-11-04T08:31:42.602Z,15.97
2018-11-04T08:34:10.987Z,15.00
2018-11-04T08:36:39.731Z,19.43
2018-11-04T08:39:08.988Z,15.63
2018-11-04T08:41:37.342Z,15.80
2018-11-04T08:44:05.815Z,15.83
2018-11-04T08:46:35.134Z,16.03
2018-11-04T08:49:03.541Z,16.97
2018-11-04T08:51:31.910Z,16.17
2018-11-04T08:54:00.278Z,20.50
2018-11-04T08:56:28.638Z,18.70
2018-11-04T08:58:57.054Z,14.70
2018-11-04T09:01:25.412Z,13.67
2018-11-04T09:03:53.729Z,12.40
2018-11-04T09:06:22.240Z,15.00
2018-11-04T09:08:50.534Z,13.47
2018-11-04T09:11:18.933Z,15.00
2018-11-04T09:13:47.467Z,14.93
2018-11-04T09:16:15.786Z,14.80
2018-11-04T09:18:44.101Z,14.37
2018-11-04T09:21:12.489Z,14.83
2018-11-04T09:23:40.955Z,17.80
2018-11-04T09:26:09.529Z,14.50
2018-11-04T09:28:37.907Z,15.27
2018-11-04T09:31:07.631Z,15.00
2018-11-04T09:33:36.301Z,14.97
2018-11-04T09:36:04.861Z,15.90
2018-11-04T09:38:33.784Z,11.80
2018-11-04T09:41:02.336Z,14.30
2018-11-04T09:43:30.785Z,12.73
2018-11-04T09:45:59.109Z,13.57
2018-11-04T09:48:27.417Z,11.93
2018-11-04T09:50:55.774Z,12.63
2018-11-04T09:53:24.205Z,12.73
2018-11-04T09:55:52.589Z,12.87
2018-11-04T09:58:21.083Z,13.97
2018-11-04T10:00:49.456Z,12.73
2018-11-04T10:03:17.837Z,11.83
2018-11-04T10:05:47.082Z,13.17
2018-11-04T10:08:15.387Z,12.93
2018-11-04T10:10:43.735Z,11.73
2018-11-04T10:13:12.180Z,10.83
2018-11-04T10:15:40.455Z,10.03
2018-11-04T10:18:08.901Z,11.53
2018-11-04T10:20:37.632Z,12.90
2018-11-04T10:23:06.141Z,12.37
2018-11-04T10:25:34.665Z,11.50
2018-11-04T10:28:03.128Z,10.97
2018-11-04T10:30:31.614Z,13.03
2018-11-04T10:32:59.898Z,11.50
2018-11-04T10:35:28.357Z,10.80
2018-11-04T10:37:56.754Z,10.67
2018-11-04T10:40:25.134Z,10.70
2018-11-04T10:42:53.842Z,12.77
2018-11-04T10:45:22.198Z,12.60
2018-11-04T10:47:50.586Z,13.60
2018-11-04T10:50:19.111Z,14.03
2018-11-04T10:52:47.632Z,12.63
2018-11-04T10:55:15.997Z,13.53
2018-11-04T10:57:44.494Z,11.97
2018-11-04T11:00:18.946Z,11.10
2018-11-04T11:02:47.510Z,12.80
2018-11-04T11:05:16.164Z,11.30
2018-11-04T11:07:44.844Z,11.40
2018-11-04T11:10:13.170Z,14.43
2018-11-04T11:12:41.522Z,14.33
2018-11-04T11:15:11.650Z,14.17
2018-11-04T11:17:40.380Z,14.30
2018-11-04T11:20:10.188Z,15.23
2018-11-04T11:22:38.594Z,14.13
2018-11-04T11:25:07.866Z,16.90
2018-11-04T11:27:36.314Z,15.70
2018-11-04T11:30:04.870Z,16.60
2018-11-04T11:32:33.186Z,14.07
2018-11-04T11:35:01.680Z,14.17
2018-11-04T11:37:30.117Z,14.80
2018-11-04T11:39:58.438Z,14.83
2018-11-04T11:42:26.730Z,17.13
2018-11-04T11:44:55.156Z,15.60
2018-11-04T11:47:25.839Z,14.00
2018-11-04T11:49:54.444Z,16.00
2018-11-04T11:52:22.862Z,11.93
2018-11-04T11:54:51.311Z,13.17
2018-11-04T11:57:19.713Z,14.13
2018-11-04T11:59:49.092Z,13.13
2018-11-04T12:02:17.569Z,16.13
2018-11-04T12:04:45.887Z,12.47
2018-11-04T12:07:14.255Z,14.03
2018-11-04T12:09:42.648Z,15.27
2018-11-04T12:12:11.023Z,16.10
2018-11-04T12:14:40.199Z,13.47
2018-11-04T12:17:08.687Z,16.03
2018-11-04T12:19:37.079Z,15.90
2018-11-04T12:22:05.687Z,12.80
2018-11-04T12:24:34.046Z,14.33
2018-11-04T12:27:02.627Z,12.20
2018-11-04T12:29:30.998Z,14.53
2018-11-04T12:31:59.400Z,14.20
2018-11-04T12:34:27.848Z,14.83
2018-11-04T12:36:56.161Z,14.73
2018-11-04T12:39:24.517Z,13.90
2018-11-04T12:41:53.213Z,19.83
2018-11-04T12:44:21.727Z,16.33
2018-11-04T12:46:50.062Z,15.23
2018-11-04T12:49:19.491Z,14.30
2018-11-04T12:51:48.045Z,15.23
2018-11-04T12:54:16.453Z,17.77
2018-11-04T12:56:44.745Z,16.50
2018-11-04T12:59:13.170Z,14.67
2018-11-04T13:01:41.663Z,16.23
2018-11-04T13:04:10.229Z,18.27
2018-11-04T13:06:38.729Z,13.37
2018-11-04T13:09:09.105Z,16.30
2018-11-04T13:11:38.225Z,14.07
2018-11-04T13:14:07.021Z,15.87
2018-11-04T13:16:35.469Z,16.00
2018-11-04T13:19:03.994Z,24.90
2018-11-04T13:21:32.943Z,16.27
2018-11-04T13:24:01.443Z,16.67
2018-11-04T13:26:29.872Z,16.27
2018-11-04T13:28:58.147Z,15.97
2018-11-04T13:31:26.459Z,15.87
2018-11-04T13:33:54.760Z,13.10
2018-11-04T13:36:23.137Z,12.87
2018-11-04T13:38:51.574Z,14.13
2018-11-04T13:41:19.918Z,14.53
2018-11-04T13:43:48.286Z,14.40
2018-11-04T13:46:16.733Z,13.17
2018-11-04T13:48:45.252Z,13.83
2018-11-04T13:51:13.744Z,15.47
2018-11-04T13:53:42.121Z,22.57
2018-11-04T13:56:10.501Z,17.87
2018-11-04T13:58:39.082Z,15.73
2018-11-04T14:01:07.614Z,15.53
2018-11-04T14:03:36.029Z,15.77
2018-11-04T14:06:04.703Z,14.83
2018-11-04T14:08:33.209Z,14.97
2018-11-04T14:11:01.628Z,13.33
2018-11-04T14:13:29.944Z,14.23
2018-11-04T14:15:58.540Z,15.33
2018-11-04T14:18:26.854Z,19.73
2018-11-04T14:20:55.175Z,15.93
2018-11-04T14:23:23.646Z,15.43
2018-11-04T14:25:51.990Z,19.57
2018-11-04T14:28:20.574Z,16.40
2018-11-04T14:30:49.060Z,17.33
2018-11-04T14:33:17.418Z,18.13
2018-11-04T14:35:45.885Z,15.10
2018-11-04T14:38:14.704Z,18.50
2018-11-04T14:40:43.039Z,16.07
2018-11-04T14:43:11.482Z,16.17
2018-11-04T14:45:40.124Z,15.80
2018-11-04T14:48:08.545Z,13.77
2018-11-04T14:50:36.976Z,14.47
2018-11-04T14:53:06.089Z,14.73
2018-11-04T14:55:34.473Z,15.23
2018-11-04T14:58:03.044Z,12.33
2018-11-04T15:00:35.326Z,12.73
2018-11-04T15:03:04.568Z,13.20
2018-11-04T15:05:32.887Z,13.00
2018-11-04T15:08:01.555Z,13.97
2018-11-04T15:10:29.917Z,14.70
2018-11-04T15:12:58.365Z,90.27
2018-11-04T15:15:26.715Z,45.70
2018-11-04T15:17:55.056Z,33.70
2018-11-04T15:20:23.453Z,17.60
2018-11-04T15:22:52.563Z,14.60
2018-11-04T15:25:22.023Z,22.00
2018-11-04T15:27:50.693Z,31.47
2018-11-04T15:30:19.300Z,34.30
2018-11-04T15:32:47.627Z,28.90
2018-11-04T15:35:16.867Z,29.13
2018-11-04T15:37:45.671Z,30.63
2018-11-04T15:40:15.103Z,31.67
2018-11-04T15:42:43.454Z,23.20
2018-11-04T15:45:13.833Z,30.33
2018-11-04T15:47:42.391Z,21.93
2018-11-04T15:50:12.858Z,19.87
2018-11-04T15:52:41.214Z,22.03
2018-11-04T15:55:09.598Z,30.03
2018-11-04T15:57:37.882Z,24.30
2018-11-04T16:00:08.842Z,20.43
2018-11-04T16:02:37.226Z,16.57
2018-11-04T16:05:06.486Z,18.20
2018-11-04T16:07:34.964Z,17.57
2018-11-04T16:10:03.430Z,17.93
2018-11-04T16:12:31.791Z,17.63
2018-11-04T16:15:00.297Z,15.90
2018-11-04T16:17:29.407Z,15.17
2018-11-04T16:19:57.808Z,15.77
2018-11-04T16:22:26.139Z,14.97
2018-11-04T16:24:54.494Z,16.93
2018-11-04T16:27:22.980Z,17.33
2018-11-04T16:29:51.550Z,16.70
2018-11-04T16:32:19.935Z,16.10
2018-11-04T16:34:48.322Z,18.50
2018-11-04T16:37:16.822Z,18.03
2018-11-04T16:39:45.290Z,17.03
2018-11-04T16:42:13.658Z,18.93
2018-11-04T16:44:42.174Z,20.73
2018-11-04T16:47:10.486Z,18.33
2018-11-04T16:49:38.798Z,14.30
2018-11-04T16:52:07.130Z,14.53
2018-11-04T16:54:35.406Z,15.93
2018-11-04T16:57:05.235Z,16.73
2018-11-04T16:59:33.591Z,16.40
2018-11-04T17:02:01.869Z,22.23
2018-11-04T17:04:31.125Z,24.57
2018-11-04T17:06:59.515Z,23.07
2018-11-04T17:09:27.859Z,21.33
2018-11-04T17:11:57.335Z,20.07
2018-11-04T17:14:25.733Z,20.00
2018-11-04T17:16:54.126Z,17.27
2018-11-04T17:19:22.496Z,16.90
2018-11-04T17:21:50.924Z,17.77
2018-11-04T17:24:19.284Z,18.00
2018-11-04T17:26:47.654Z,16.40
2018-11-04T17:29:16.031Z,16.10
2018-11-04T17:31:44.405Z,15.80
2018-11-04T17:34:12.779Z,16.33
2018-11-04T17:36:41.339Z,14.87
2018-11-04T17:39:11.007Z,15.93
2018-11-04T17:41:39.513Z,16.70
2018-11-04T17:44:08.650Z,16.97
2018-11-04T17:46:37.482Z,18.80
2018-11-04T17:49:06.230Z,18.10
2018-11-04T17:51:34.618Z,18.30
2018-11-04T17:54:03.002Z,18.97
2018-11-04T17:56:31.254Z,19.27
2018-11-04T17:58:59.630Z,18.27
2018-11-04T18:01:28.022Z,19.50
2018-11-04T18:03:56.398Z,17.63
2018-11-04T18:06:24.742Z,17.50
2018-11-04T18:08:53.283Z,19.57
2018-11-04T18:11:21.854Z,16.60
2018-11-04T18:13:50.466Z,18.27
2018-11-04T18:16:18.886Z,18.07
2018-11-04T18:18:47.288Z,20.33
2018-11-04T18:21:15.697Z,20.07
2018-11-04T18:23:44.108Z,20.87
2018-11-04T18:26:12.958Z,19.53
2018-11-04T18:28:41.242Z,16.67
2018-11-04T18:31:09.596Z,17.07
2018-11-04T18:33:37.955Z,17.40
2018-11-04T18:36:06.569Z,19.03
2018-11-04T18:38:34.999Z,28.17
2018-11-04T18:41:03.433Z,32.37
2018-11-04T18:43:31.834Z,28.00
2018-11-04T18:46:00.114Z,25.90
2018-11-04T18:48:28.439Z,22.47
2018-11-04T18:50:56.774Z,19.23
2018-11-04T18:53:25.405Z,16.47
2018-11-04T18:55:53.766Z,17.73
2018-11-04T18:58:22.272Z,15.77
2018-11-04T19:00:50.569Z,15.57
2018-11-04T19:03:18.903Z,13.70
2018-11-04T19:05:47.313Z,15.20
2018-11-04T19:08:15.689Z,15.67
2018-11-04T19:10:44.255Z,14.43
2018-11-04T19:13:12.835Z,14.07
2018-11-04T19:15:41.207Z,16.87
2018-11-04T19:18:09.631Z,20.00
2018-11-04T19:20:37.979Z,19.73
2018-11-04T19:23:06.325Z,19.33
2018-11-04T19:25:41.365Z,19.37
2018-11-04T19:28:09.757Z,23.93
2018-11-04T19:30:38.208Z,20.37
2018-11-04T19:33:06.515Z,19.63
2018-11-04T19:35:34.887Z,20.47
2018-11-04T19:38:03.276Z,17.23
2018-11-04T19:40:31.684Z,19.73
2018-11-04T19:43:00.147Z,24.37
2018-11-04T19:45:28.570Z,44.67
2018-11-04T19:47:56.853Z,39.03
2018-11-04T19:50:25.170Z,25.97
2018-11-04T19:52:53.469Z,30.60
2018-11-04T19:55:21.802Z,18.40
2018-11-04T19:57:50.194Z,19.60
2018-11-04T20:00:18.536Z,22.97
2018-11-04T20:02:46.892Z,24.37
2018-11-04T20:05:15.317Z,22.97
2018-11-04T20:07:43.684Z,24.00
2018-11-04T20:10:14.702Z,22.33
2018-11-04T20:12:48.439Z,20.97
2018-11-04T20:15:16.896Z,23.47
2018-11-04T20:17:45.953Z,23.03
2018-11-04T20:20:16.392Z,20.77
2018-11-04T20:22:44.625Z,20.40
2018-11-04T20:25:18.030Z,20.70
2018-11-04T20:27:46.389Z,19.63
2018-11-04T20:30:15.129Z,25.07
2018-11-04T20:32:48.717Z,24.50
2018-11-04T20:35:17.317Z,22.87
2018-11-04T20:37:45.763Z,24.00
2018-11-04T20:40:19.334Z,27.73
2018-11-04T20:42:47.664Z,22.73
2018-11-04T20:45:16.006Z,22.57
2018-11-04T20:47:49.738Z,22.93
2018-11-04T20:50:23.414Z,21.43
2018-11-04T20:52:51.820Z,23.23
2018-11-04T20:55:20.174Z,20.87
2018-11-04T20:57:52.827Z,19.00
2018-11-04T21:00:21.334Z,15.83
2018-11-04T21:02:49.626Z,18.07
2018-11-04T21:05:18.001Z,18.73
2018-11-04T21:07:46.313Z,17.60
2018-11-04T21:10:14.640Z,18.73
2018-11-04T21:12:43.030Z,18.10
2018-11-04T21:15:11.494Z,15.77
2018-11-04T21:17:39.902Z,15.20
2018-11-04T21:20:08.262Z,16.73
2018-11-04T21:22:36.650Z,17.93
2018-11-04T21:25:05.775Z,15.27
2018-11-04T21:27:34.224Z,14.70
2018-11-04T21:30:03.647Z,14.90
2018-11-04T21:32:32.039Z,14.60
2018-11-04T21:35:00.666Z,14.57
2018-11-04T21:37:29.074Z,15.10
2018-11-04T21:39:57.374Z,22.47
2018-11-04T21:42:25.928Z,17.73
2018-11-04T21:44:54.118Z,15.77
2018-11-04T21:47:22.417Z,15.63
2018-11-04T21:49:51.118Z,14.73
2018-11-04T21:52:19.510Z,15.07
2018-11-04T21:54:47.842Z,24.27
2018-11-04T21:57:16.228Z,17.77
2018-11-04T21:59:44.590Z,18.43
2018-11-04T22:02:12.997Z,15.83
2018-11-04T22:04:41.375Z,14.43
2018-11-04T22:07:09.742Z,13.33
2018-11-04T22:09:38.099Z,13.23
2018-11-04T22:12:06.446Z,15.37
2018-11-04T22:14:34.747Z,12.93
2018-11-04T22:17:03.250Z,15.33
2018-11-04T22:19:31.619Z,12.30
2018-11-04T22:21:59.897Z,14.23
2018-11-04T22:24:28.195Z,13.93
2018-11-04T22:26:56.518Z,14.73
2018-11-04T22:29:24.994Z,13.43
2018-11-04T22:31:53.288Z,11.30
2018-11-04T22:34:21.619Z,12.33
2018-11-04T22:36:50.955Z,12.23
2018-11-04T22:39:19.249Z,14.43
2018-11-04T22:41:47.673Z,14.00
2018-11-04T22:44:15.966Z,13.57
2018-11-04T22:46:44.373Z,16.13
2018-11-04T22:49:12.798Z,10.93
2018-11-04T22:51:41.062Z,13.00
2018-11-04T22:54:09.358Z,12.50
2018-11-04T22:56:37.834Z,11.37
2018-11-04T22:59:06.298Z,11.00
2018-11-04T23:01:34.667Z,10.00
2018-11-04T23:04:03.039Z,10.33
2018-11-04T23:06:31.270Z,11.30
2018-11-04T23:08:59.574Z,12.13
2018-11-04T23:11:27.897Z,13.77
2018-11-04T23:13:56.335Z,13.77
2018-11-04T23:16:24.629Z,12.43
2018-11-04T23:18:52.979Z,13.30
2018-11-04T23:21:21.247Z,12.37
2018-11-04T23:23:49.547Z,11.33
2018-11-04T23:26:17.940Z,12.50
2018-11-04T23:28:46.388Z,13.47
2018-11-04T23:31:14.655Z,10.47
2018-11-04T23:33:42.963Z,10.00
2018-11-04T23:36:11.237Z,13.67
2018-11-04T23:38:39.529Z,13.00
2018-11-04T23:41:07.858Z,12.40
2018-11-04T23:43:36.141Z,10.07
2018-11-04T23:46:04.445Z,13.73
2018-11-04T23:48:32.817Z,14.93
2018-11-04T23:51:01.082Z,14.20
2018-11-04T23:53:29.394Z,11.20
2018-11-04T23:55:57.747Z,11.87
2018-11-04T23:58:26.026Z,11.90
